sensor_id;sensor_type;location;lat;lon;timestamp;P1;durP1;ratioP1;P2;durP2;ratioP2
64651;SDS011;51062;45.120;37.660;2023-10-09T00:00:05;0.52;;;0.52;;
64651;SDS011;51062;45.120;37.660;2023-10-09T00:02:50;25.42;;;0.68;;
64651;SDS011;51062;45.120;37.660;2023-10-09T00:05:16;0.30;;;0.30;;
64651;SDS011;51062;45.120;37.660;2023-10-09T00:07:49;0.28;;;0.28;;
64651;SDS011;51062;45.120;37.660;2023-10-09T00:10:21;0.50;;;0.50;;
64651;SDS011;51062;45.120;37.660;2023-10-09T00:12:47;15.75;;;0.80;;
64651;SDS011;51062;45.120;37.660;2023-10-09T00:15:14;2.17;;;1.02;;
64651;SDS011;51062;45.120;37.660;2023-10-09T00:17:46;0.30;;;0.30;;
64651;SDS011;51062;45.120;37.660;2023-10-09T00:20:14;0.35;;;0.35;;
64651;SDS011;51062;45.120;37.660;2023-10-09T00:22:46;0.40;;;0.40;;
64651;SDS011;51062;45.120;37.660;2023-10-09T00:25:12;0.40;;;0.40;;
64651;SDS011;51062;45.120;37.660;2023-10-09T00:27:46;1.17;;;0.75;;
64651;SDS011;51062;45.120;37.660;2023-10-09T00:30:14;12.27;;;11.10;;
64651;SDS011;51062;45.120;37.660;2023-10-09T00:32:43;14.90;;;13.45;;
64651;SDS011;51062;45.120;37.660;2023-10-09T00:35:30;4.32;;;4.03;;
64651;SDS011;51062;45.120;37.660;2023-10-09T00:38:02;0.30;;;0.30;;
64651;SDS011;51062;45.120;37.660;2023-10-09T00:40:51;2.42;;;2.17;;
64651;SDS011;51062;45.120;37.660;2023-10-09T00:43:33;3.50;;;2.63;;
64651;SDS011;51062;45.120;37.660;2023-10-09T00:46:02;8.73;;;3.63;;
64651;SDS011;51062;45.120;37.660;2023-10-09T00:48:29;5.75;;;4.63;;
64651;SDS011;51062;45.120;37.660;2023-10-09T00:51:03;2.65;;;2.38;;
64651;SDS011;51062;45.120;37.660;2023-10-09T00:53:43;1.48;;;1.38;;
64651;SDS011;51062;45.120;37.660;2023-10-09T00:56:10;6.15;;;2.72;;
64651;SDS011;51062;45.120;37.660;2023-10-09T00:58:47;11.60;;;2.87;;
64651;SDS011;51062;45.120;37.660;2023-10-09T01:01:23;0.85;;;0.85;;
64651;SDS011;51062;45.120;37.660;2023-10-09T01:03:53;1.13;;;0.68;;
64651;SDS011;51062;45.120;37.660;2023-10-09T01:06:19;1.30;;;1.20;;
64651;SDS011;51062;45.120;37.660;2023-10-09T01:08:53;2.42;;;2.15;;
64651;SDS011;51062;45.120;37.660;2023-10-09T01:11:34;2.42;;;2.10;;
64651;SDS011;51062;45.120;37.660;2023-10-09T01:14:10;1.52;;;1.42;;
64651;SDS011;51062;45.120;37.660;2023-10-09T01:16:37;1.48;;;1.38;;
64651;SDS011;51062;45.120;37.660;2023-10-09T01:19:07;3.70;;;2.95;;
64651;SDS011;51062;45.120;37.660;2023-10-09T01:21:52;1.50;;;1.40;;
64651;SDS011;51062;45.120;37.660;2023-10-09T01:24:19;7.45;;;3.38;;
64651;SDS011;51062;45.120;37.660;2023-10-09T01:26:45;6.00;;;4.07;;
64651;SDS011;51062;45.120;37.660;2023-10-09T01:29:22;7.03;;;5.50;;
64651;SDS011;51062;45.120;37.660;2023-10-09T01:31:53;9.50;;;5.35;;
64651;SDS011;51062;45.120;37.660;2023-10-09T01:34:22;4.85;;;3.55;;
64651;SDS011;51062;45.120;37.660;2023-10-09T01:37:05;3.88;;;2.30;;
64651;SDS011;51062;45.120;37.660;2023-10-09T01:39:40;0.82;;;0.82;;
64651;SDS011;51062;45.120;37.660;2023-10-09T01:42:08;0.90;;;0.90;;
64651;SDS011;51062;45.120;37.660;2023-10-09T01:44:35;0.68;;;0.68;;
64651;SDS011;51062;45.120;37.660;2023-10-09T01:47:08;0.43;;;0.43;;
64651;SDS011;51062;45.120;37.660;2023-10-09T01:49:39;0.50;;;0.50;;
64651;SDS011;51062;45.120;37.660;2023-10-09T01:52:09;0.43;;;0.43;;
64651;SDS011;51062;45.120;37.660;2023-10-09T01:54:43;15.82;;;0.73;;
64651;SDS011;51062;45.120;37.660;2023-10-09T01:57:15;0.40;;;0.40;;
64651;SDS011;51062;45.120;37.660;2023-10-09T01:59:47;0.68;;;0.68;;
64651;SDS011;51062;45.120;37.660;2023-10-09T02:02:15;0.60;;;0.60;;
64651;SDS011;51062;45.120;37.660;2023-10-09T02:04:56;0.52;;;0.47;;
64651;SDS011;51062;45.120;37.660;2023-10-09T02:07:35;0.60;;;0.55;;
64651;SDS011;51062;45.120;37.660;2023-10-09T02:10:10;4.28;;;1.77;;
64651;SDS011;51062;45.120;37.660;2023-10-09T02:12:56;2.00;;;0.57;;
64651;SDS011;51062;45.120;37.660;2023-10-09T02:15:33;0.93;;;0.93;;
64651;SDS011;51062;45.120;37.660;2023-10-09T02:18:20;0.40;;;0.40;;
64651;SDS011;51062;45.120;37.660;2023-10-09T02:20:48;0.40;;;0.40;;
64651;SDS011;51062;45.120;37.660;2023-10-09T02:23:35;0.40;;;0.40;;
64651;SDS011;51062;45.120;37.660;2023-10-09T02:26:07;0.70;;;0.70;;
64651;SDS011;51062;45.120;37.660;2023-10-09T02:29:03;0.95;;;0.55;;
64651;SDS011;51062;45.120;37.660;2023-10-09T02:31:50;0.60;;;0.60;;
64651;SDS011;51062;45.120;37.660;2023-10-09T02:34:26;0.70;;;0.52;;
64651;SDS011;51062;45.120;37.660;2023-10-09T02:36:54;0.40;;;0.40;;
64651;SDS011;51062;45.120;37.660;2023-10-09T02:39:24;0.40;;;0.40;;
64651;SDS011;51062;45.120;37.660;2023-10-09T02:41:53;0.85;;;0.85;;
64651;SDS011;51062;45.120;37.660;2023-10-09T02:46:57;0.47;;;0.47;;
64651;SDS011;51062;45.120;37.660;2023-10-09T02:49:24;24.30;;;1.27;;
64651;SDS011;51062;45.120;37.660;2023-10-09T02:51:52;0.55;;;0.55;;
64651;SDS011;51062;45.120;37.660;2023-10-09T02:54:19;0.40;;;0.40;;
64651;SDS011;51062;45.120;37.660;2023-10-09T02:56:48;1.13;;;0.73;;
64651;SDS011;51062;45.120;37.660;2023-10-09T02:59:32;4.47;;;1.10;;
64651;SDS011;51062;45.120;37.660;2023-10-09T03:01:59;0.40;;;0.40;;
64651;SDS011;51062;45.120;37.660;2023-10-09T03:04:25;0.40;;;0.40;;
64651;SDS011;51062;45.120;37.660;2023-10-09T03:06:56;0.57;;;0.57;;
64651;SDS011;51062;45.120;37.660;2023-10-09T03:09:23;0.65;;;0.63;;
64651;SDS011;51062;45.120;37.660;2023-10-09T03:11:55;2.58;;;1.33;;
64651;SDS011;51062;45.120;37.660;2023-10-09T03:14:29;1.67;;;0.85;;
64651;SDS011;51062;45.120;37.660;2023-10-09T03:17:01;0.40;;;0.40;;
64651;SDS011;51062;45.120;37.660;2023-10-09T03:19:28;0.75;;;0.75;;
64651;SDS011;51062;45.120;37.660;2023-10-09T03:21:55;0.47;;;0.47;;
64651;SDS011;51062;45.120;37.660;2023-10-09T03:24:27;1.90;;;0.85;;
64651;SDS011;51062;45.120;37.660;2023-10-09T03:26:53;3.25;;;0.63;;
64651;SDS011;51062;45.120;37.660;2023-10-09T03:29:22;0.65;;;0.65;;
64651;SDS011;51062;45.120;37.660;2023-10-09T03:31:49;0.90;;;0.88;;
64651;SDS011;51062;45.120;37.660;2023-10-09T03:34:17;0.40;;;0.40;;
64651;SDS011;51062;45.120;37.660;2023-10-09T03:36:45;0.68;;;0.68;;
64651;SDS011;51062;45.120;37.660;2023-10-09T03:39:13;0.60;;;0.60;;
64651;SDS011;51062;45.120;37.660;2023-10-09T03:41:58;0.40;;;0.40;;
64651;SDS011;51062;45.120;37.660;2023-10-09T03:44:24;0.35;;;0.35;;
64651;SDS011;51062;45.120;37.660;2023-10-09T03:46:54;0.70;;;0.70;;
64651;SDS011;51062;45.120;37.660;2023-10-09T03:49:20;1.92;;;1.15;;
64651;SDS011;51062;45.120;37.660;2023-10-09T03:51:51;0.52;;;0.52;;
64651;SDS011;51062;45.120;37.660;2023-10-09T03:54:18;0.45;;;0.45;;
64651;SDS011;51062;45.120;37.660;2023-10-09T03:56:49;0.63;;;0.63;;
64651;SDS011;51062;45.120;37.660;2023-10-09T03:59:18;0.73;;;0.73;;
64651;SDS011;51062;45.120;37.660;2023-10-09T04:01:47;3.45;;;0.75;;
64651;SDS011;51062;45.120;37.660;2023-10-09T04:04:16;0.60;;;0.60;;
64651;SDS011;51062;45.120;37.660;2023-10-09T04:06:42;0.68;;;0.68;;
64651;SDS011;51062;45.120;37.660;2023-10-09T04:09:09;0.30;;;0.30;;
64651;SDS011;51062;45.120;37.660;2023-10-09T04:11:51;0.40;;;0.40;;
64651;SDS011;51062;45.120;37.660;2023-10-09T04:14:39;0.70;;;0.70;;
64651;SDS011;51062;45.120;37.660;2023-10-09T04:17:15;2.50;;;0.70;;
64651;SDS011;51062;45.120;37.660;2023-10-09T04:19:48;0.60;;;0.60;;
64651;SDS011;51062;45.120;37.660;2023-10-09T04:22:34;0.50;;;0.50;;
64651;SDS011;51062;45.120;37.660;2023-10-09T04:25:20;0.40;;;0.40;;
64651;SDS011;51062;45.120;37.660;2023-10-09T04:27:57;1.17;;;0.90;;
64651;SDS011;51062;45.120;37.660;2023-10-09T04:30:40;0.40;;;0.40;;
64651;SDS011;51062;45.120;37.660;2023-10-09T04:33:12;0.57;;;0.57;;
64651;SDS011;51062;45.120;37.660;2023-10-09T04:36:03;2.85;;;1.00;;
64651;SDS011;51062;45.120;37.660;2023-10-09T04:41:32;0.40;;;0.40;;
64651;SDS011;51062;45.120;37.660;2023-10-09T04:44:07;0.73;;;0.60;;
64651;SDS011;51062;45.120;37.660;2023-10-09T04:46:43;0.35;;;0.35;;
64651;SDS011;51062;45.120;37.660;2023-10-09T04:49:10;28.23;;;0.95;;
64651;SDS011;51062;45.120;37.660;2023-10-09T04:52:03;3.53;;;0.82;;
64651;SDS011;51062;45.120;37.660;2023-10-09T04:54:44;0.47;;;0.47;;
64651;SDS011;51062;45.120;37.660;2023-10-09T04:57:43;0.50;;;0.50;;
64651;SDS011;51062;45.120;37.660;2023-10-09T05:00:13;2.00;;;0.90;;
64651;SDS011;51062;45.120;37.660;2023-10-09T05:02:56;0.40;;;0.40;;
64651;SDS011;51062;45.120;37.660;2023-10-09T05:05:28;0.52;;;0.52;;
64651;SDS011;51062;45.120;37.660;2023-10-09T05:08:07;4.72;;;0.52;;
64651;SDS011;51062;45.120;37.660;2023-10-09T05:10:45;0.50;;;0.50;;
64651;SDS011;51062;45.120;37.660;2023-10-09T05:13:25;0.75;;;0.60;;
64651;SDS011;51062;45.120;37.660;2023-10-09T05:16:04;0.60;;;0.60;;
64651;SDS011;51062;45.120;37.660;2023-10-09T05:18:54;0.60;;;0.60;;
64651;SDS011;51062;45.120;37.660;2023-10-09T05:21:34;1.00;;;0.90;;
64651;SDS011;51062;45.120;37.660;2023-10-09T05:24:08;1.73;;;0.55;;
64651;SDS011;51062;45.120;37.660;2023-10-09T05:26:40;0.75;;;0.50;;
64651;SDS011;51062;45.120;37.660;2023-10-09T05:29:14;4.03;;;1.10;;
64651;SDS011;51062;45.120;37.660;2023-10-09T05:32:04;5.00;;;0.88;;
64651;SDS011;51062;45.120;37.660;2023-10-09T05:34:40;1.65;;;1.30;;
64651;SDS011;51062;45.120;37.660;2023-10-09T05:37:27;1.05;;;0.82;;
64651;SDS011;51062;45.120;37.660;2023-10-09T05:40:08;2.08;;;1.55;;
64651;SDS011;51062;45.120;37.660;2023-10-09T05:42:45;1.70;;;0.82;;
64651;SDS011;51062;45.120;37.660;2023-10-09T05:45:23;0.50;;;0.50;;
64651;SDS011;51062;45.120;37.660;2023-10-09T05:48:15;0.38;;;0.38;;
64651;SDS011;51062;45.120;37.660;2023-10-09T05:50:41;0.50;;;0.50;;
64651;SDS011;51062;45.120;37.660;2023-10-09T05:53:26;1.30;;;1.20;;
64651;SDS011;51062;45.120;37.660;2023-10-09T05:56:11;0.50;;;0.50;;
64651;SDS011;51062;45.120;37.660;2023-10-09T05:58:55;0.52;;;0.52;;
64651;SDS011;51062;45.120;37.660;2023-10-09T06:01:57;0.85;;;0.60;;
64651;SDS011;51062;45.120;37.660;2023-10-09T06:04:41;0.35;;;0.35;;
64651;SDS011;51062;45.120;37.660;2023-10-09T06:07:20;0.40;;;0.40;;
64651;SDS011;51062;45.120;37.660;2023-10-09T06:10:06;7.70;;;1.40;;
64651;SDS011;51062;45.120;37.660;2023-10-09T06:12:43;7.13;;;0.55;;
64651;SDS011;51062;45.120;37.660;2023-10-09T06:15:09;1.10;;;0.77;;
64651;SDS011;51062;45.120;37.660;2023-10-09T06:17:54;0.25;;;0.25;;
64651;SDS011;51062;45.120;37.660;2023-10-09T06:20:25;9.98;;;0.50;;
64651;SDS011;51062;45.120;37.660;2023-10-09T06:23:26;0.30;;;0.30;;
64651;SDS011;51062;45.120;37.660;2023-10-09T06:26:12;0.57;;;0.50;;
64651;SDS011;51062;45.120;37.660;2023-10-09T06:28:49;0.52;;;0.40;;
64651;SDS011;51062;45.120;37.660;2023-10-09T06:31:36;0.40;;;0.40;;
64651;SDS011;51062;45.120;37.660;2023-10-09T06:34:21;1.67;;;0.85;;
64651;SDS011;51062;45.120;37.660;2023-10-09T06:37:00;0.30;;;0.30;;
64651;SDS011;51062;45.120;37.660;2023-10-09T06:39:53;0.88;;;0.45;;
64651;SDS011;51062;45.120;37.660;2023-10-09T06:42:24;0.40;;;0.40;;
64651;SDS011;51062;45.120;37.660;2023-10-09T06:45:07;0.20;;;0.20;;
64651;SDS011;51062;45.120;37.660;2023-10-09T06:52:46;2.40;;;0.68;;
64651;SDS011;51062;45.120;37.660;2023-10-09T06:55:38;0.50;;;0.50;;
64651;SDS011;51062;45.120;37.660;2023-10-09T06:58:20;0.52;;;0.52;;
64651;SDS011;51062;45.120;37.660;2023-10-09T07:01:07;0.38;;;0.38;;
64651;SDS011;51062;45.120;37.660;2023-10-09T07:03:54;0.55;;;0.50;;
64651;SDS011;51062;45.120;37.660;2023-10-09T07:06:44;0.38;;;0.38;;
64651;SDS011;51062;45.120;37.660;2023-10-09T07:09:14;0.43;;;0.40;;
64651;SDS011;51062;45.120;37.660;2023-10-09T07:11:44;12.35;;;0.65;;
64651;SDS011;51062;45.120;37.660;2023-10-09T07:14:19;2.63;;;1.17;;
64651;SDS011;51062;45.120;37.660;2023-10-09T07:16:55;0.52;;;0.50;;
64651;SDS011;51062;45.120;37.660;2023-10-09T07:19:30;1.23;;;0.70;;
64651;SDS011;51062;45.120;37.660;2023-10-09T07:22:03;1.83;;;0.95;;
64651;SDS011;51062;45.120;37.660;2023-10-09T07:24:29;0.43;;;0.43;;
64651;SDS011;51062;45.120;37.660;2023-10-09T07:27:31;2.00;;;0.28;;
64651;SDS011;51062;45.120;37.660;2023-10-09T07:30:07;0.30;;;0.30;;
64651;SDS011;51062;45.120;37.660;2023-10-09T07:32:53;0.50;;;0.50;;
64651;SDS011;51062;45.120;37.660;2023-10-09T07:35:20;1.05;;;0.60;;
64651;SDS011;51062;45.120;37.660;2023-10-09T07:38:08;0.30;;;0.30;;
64651;SDS011;51062;45.120;37.660;2023-10-09T07:40:40;0.40;;;0.35;;
64651;SDS011;51062;45.120;37.660;2023-10-09T07:43:27;0.40;;;0.40;;
64651;SDS011;51062;45.120;37.660;2023-10-09T07:46:04;1.02;;;0.52;;
64651;SDS011;51062;45.120;37.660;2023-10-09T07:48:33;0.45;;;0.45;;
64651;SDS011;51062;45.120;37.660;2023-10-09T07:51:16;2.20;;;0.40;;
64651;SDS011;51062;45.120;37.660;2023-10-09T07:53:45;1.27;;;0.68;;
64651;SDS011;51062;45.120;37.660;2023-10-09T07:56:11;0.30;;;0.30;;
64651;SDS011;51062;45.120;37.660;2023-10-09T07:58:46;1.02;;;0.50;;
64651;SDS011;51062;45.120;37.660;2023-10-09T08:01:13;0.47;;;0.47;;
64651;SDS011;51062;45.120;37.660;2023-10-09T08:04:00;5.15;;;0.50;;
64651;SDS011;51062;45.120;37.660;2023-10-09T08:06:49;1.83;;;0.52;;
64651;SDS011;51062;45.120;37.660;2023-10-09T08:09:16;0.65;;;0.55;;
64651;SDS011;51062;45.120;37.660;2023-10-09T08:11:44;0.30;;;0.30;;
64651;SDS011;51062;45.120;37.660;2023-10-09T08:14:11;0.60;;;0.60;;
64651;SDS011;51062;45.120;37.660;2023-10-09T08:16:47;0.38;;;0.32;;
64651;SDS011;51062;45.120;37.660;2023-10-09T08:19:13;0.22;;;0.22;;
64651;SDS011;51062;45.120;37.660;2023-10-09T08:21:58;0.57;;;0.57;;
64651;SDS011;51062;45.120;37.660;2023-10-09T08:25:03;0.57;;;0.57;;
64651;SDS011;51062;45.120;37.660;2023-10-09T08:27:30;0.88;;;0.80;;
64651;SDS011;51062;45.120;37.660;2023-10-09T08:30:03;0.28;;;0.28;;
64651;SDS011;51062;45.120;37.660;2023-10-09T08:32:48;0.30;;;0.30;;
64651;SDS011;51062;45.120;37.660;2023-10-09T08:35:28;0.40;;;0.40;;
64651;SDS011;51062;45.120;37.660;2023-10-09T08:37:59;2.28;;;1.38;;
64651;SDS011;51062;45.120;37.660;2023-10-09T08:40:50;0.20;;;0.20;;
64651;SDS011;51062;45.120;37.660;2023-10-09T08:43:20;0.40;;;0.40;;
64651;SDS011;51062;45.120;37.660;2023-10-09T08:48:18;0.40;;;0.40;;
64651;SDS011;51062;45.120;37.660;2023-10-09T08:50:47;4.03;;;1.30;;
64651;SDS011;51062;45.120;37.660;2023-10-09T08:53:19;2.55;;;0.93;;
64651;SDS011;51062;45.120;37.660;2023-10-09T08:55:47;0.30;;;0.30;;
64651;SDS011;51062;45.120;37.660;2023-10-09T08:58:17;4.38;;;0.40;;
64651;SDS011;51062;45.120;37.660;2023-10-09T09:00:50;5.63;;;1.15;;
64651;SDS011;51062;45.120;37.660;2023-10-09T09:03:17;0.38;;;0.38;;
64651;SDS011;51062;45.120;37.660;2023-10-09T09:05:47;1.45;;;1.40;;
64651;SDS011;51062;45.120;37.660;2023-10-09T09:08:27;0.30;;;0.30;;
64651;SDS011;51062;45.120;37.660;2023-10-09T09:11:02;0.40;;;0.40;;
64651;SDS011;51062;45.120;37.660;2023-10-09T09:16:21;0.57;;;0.30;;
64651;SDS011;51062;45.120;37.660;2023-10-09T09:18:55;0.30;;;0.30;;
64651;SDS011;51062;45.120;37.660;2023-10-09T09:21:29;0.60;;;0.60;;
64651;SDS011;51062;45.120;37.660;2023-10-09T09:24:03;1.85;;;0.57;;
64651;SDS011;51062;45.120;37.660;2023-10-09T09:26:42;1.30;;;0.70;;
64651;SDS011;51062;45.120;37.660;2023-10-09T09:29:15;3.17;;;1.08;;
64651;SDS011;51062;45.120;37.660;2023-10-09T09:31:51;0.25;;;0.25;;
64651;SDS011;51062;45.120;37.660;2023-10-09T09:34:43;0.38;;;0.30;;
64651;SDS011;51062;45.120;37.660;2023-10-09T09:37:10;1.23;;;0.40;;
64651;SDS011;51062;45.120;37.660;2023-10-09T09:39:44;0.20;;;0.20;;
64651;SDS011;51062;45.120;37.660;2023-10-09T09:42:15;0.40;;;0.40;;
64651;SDS011;51062;45.120;37.660;2023-10-09T09:44:43;0.30;;;0.30;;
64651;SDS011;51062;45.120;37.660;2023-10-09T09:47:14;0.47;;;0.47;;
64651;SDS011;51062;45.120;37.660;2023-10-09T09:49:50;1.98;;;0.95;;
64651;SDS011;51062;45.120;37.660;2023-10-09T09:52:30;0.20;;;0.20;;
64651;SDS011;51062;45.120;37.660;2023-10-09T09:55:09;0.63;;;0.35;;
64651;SDS011;51062;45.120;37.660;2023-10-09T09:57:48;0.30;;;0.30;;
64651;SDS011;51062;45.120;37.660;2023-10-09T10:00:21;0.40;;;0.40;;
64651;SDS011;51062;45.120;37.660;2023-10-09T10:03:36;0.43;;;0.40;;
64651;SDS011;51062;45.120;37.660;2023-10-09T10:06:08;0.40;;;0.40;;
64651;SDS011;51062;45.120;37.660;2023-10-09T10:08:38;0.65;;;0.40;;
64651;SDS011;51062;45.120;37.660;2023-10-09T10:11:07;3.00;;;1.10;;
64651;SDS011;51062;45.120;37.660;2023-10-09T10:16:11;0.45;;;0.38;;
64651;SDS011;51062;45.120;37.660;2023-10-09T10:18:57;3.22;;;0.50;;
64651;SDS011;51062;45.120;37.660;2023-10-09T10:21:36;0.50;;;0.50;;
64651;SDS011;51062;45.120;37.660;2023-10-09T10:32:56;0.40;;;0.40;;
64651;SDS011;51062;45.120;37.660;2023-10-09T10:35:23;0.40;;;0.40;;
64651;SDS011;51062;45.120;37.660;2023-10-09T10:41:12;0.38;;;0.38;;
64651;SDS011;51062;45.120;37.660;2023-10-09T10:43:43;0.30;;;0.30;;
64651;SDS011;51062;45.120;37.660;2023-10-09T10:46:19;0.40;;;0.40;;
64651;SDS011;51062;45.120;37.660;2023-10-09T10:49:04;0.30;;;0.30;;
64651;SDS011;51062;45.120;37.660;2023-10-09T10:51:37;0.30;;;0.30;;
64651;SDS011;51062;45.120;37.660;2023-10-09T10:54:04;1.20;;;0.60;;
64651;SDS011;51062;45.120;37.660;2023-10-09T10:57:04;0.40;;;0.40;;
64651;SDS011;51062;45.120;37.660;2023-10-09T10:59:45;0.55;;;0.55;;
64651;SDS011;51062;45.120;37.660;2023-10-09T11:02:14;0.45;;;0.45;;
64651;SDS011;51062;45.120;37.660;2023-10-09T11:04:48;0.30;;;0.30;;
64651;SDS011;51062;45.120;37.660;2023-10-09T11:07:37;0.30;;;0.30;;
64651;SDS011;51062;45.120;37.660;2023-10-09T11:10:03;0.30;;;0.30;;
64651;SDS011;51062;45.120;37.660;2023-10-09T11:12:31;0.30;;;0.30;;
64651;SDS011;51062;45.120;37.660;2023-10-09T11:15:05;0.20;;;0.20;;
64651;SDS011;51062;45.120;37.660;2023-10-09T11:18:05;0.95;;;0.70;;
64651;SDS011;51062;45.120;37.660;2023-10-09T11:20:45;1.95;;;1.40;;
64651;SDS011;51062;45.120;37.660;2023-10-09T11:23:31;0.60;;;0.52;;
64651;SDS011;51062;45.120;37.660;2023-10-09T11:26:04;0.63;;;0.63;;
64651;SDS011;51062;45.120;37.660;2023-10-09T11:32:01;0.30;;;0.30;;
64651;SDS011;51062;45.120;37.660;2023-10-09T11:34:34;0.60;;;0.60;;
64651;SDS011;51062;45.120;37.660;2023-10-09T11:39:37;0.35;;;0.35;;
64651;SDS011;51062;45.120;37.660;2023-10-09T11:42:19;0.85;;;0.50;;
64651;SDS011;51062;45.120;37.660;2023-10-09T11:45:24;1.17;;;0.80;;
64651;SDS011;51062;45.120;37.660;2023-10-09T11:47:56;4.93;;;1.75;;
64651;SDS011;51062;45.120;37.660;2023-10-09T11:53:17;24.27;;;0.85;;
64651;SDS011;51062;45.120;37.660;2023-10-09T11:55:50;0.30;;;0.30;;
64651;SDS011;51062;45.120;37.660;2023-10-09T11:58:19;0.30;;;0.30;;
64651;SDS011;51062;45.120;37.660;2023-10-09T12:00:55;0.50;;;0.50;;
64651;SDS011;51062;45.120;37.660;2023-10-09T12:03:23;0.30;;;0.30;;
64651;SDS011;51062;45.120;37.660;2023-10-09T12:05:55;0.65;;;0.30;;
64651;SDS011;51062;45.120;37.660;2023-10-09T12:08:38;0.30;;;0.30;;
64651;SDS011;51062;45.120;37.660;2023-10-09T12:11:07;0.90;;;0.50;;
64651;SDS011;51062;45.120;37.660;2023-10-09T12:13:37;3.30;;;0.50;;
64651;SDS011;51062;45.120;37.660;2023-10-09T12:16:04;0.50;;;0.50;;
64651;SDS011;51062;45.120;37.660;2023-10-09T12:18:34;0.40;;;0.40;;
64651;SDS011;51062;45.120;37.660;2023-10-09T12:21:02;0.40;;;0.40;;
64651;SDS011;51062;45.120;37.660;2023-10-09T12:23:29;0.93;;;0.43;;
64651;SDS011;51062;45.120;37.660;2023-10-09T12:26:01;0.40;;;0.40;;
64651;SDS011;51062;45.120;37.660;2023-10-09T12:28:28;2.00;;;0.47;;
64651;SDS011;51062;45.120;37.660;2023-10-09T12:30:55;0.50;;;0.50;;
64651;SDS011;51062;45.120;37.660;2023-10-09T12:33:27;2.55;;;0.43;;
64651;SDS011;51062;45.120;37.660;2023-10-09T12:35:54;4.70;;;0.70;;
64651;SDS011;51062;45.120;37.660;2023-10-09T12:38:27;0.40;;;0.40;;
64651;SDS011;51062;45.120;37.660;2023-10-09T12:41:04;0.38;;;0.35;;
64651;SDS011;51062;45.120;37.660;2023-10-09T12:43:45;0.52;;;0.47;;
64651;SDS011;51062;45.120;37.660;2023-10-09T12:46:14;0.90;;;0.63;;
64651;SDS011;51062;45.120;37.660;2023-10-09T12:48:44;0.30;;;0.30;;
64651;SDS011;51062;45.120;37.660;2023-10-09T12:51:13;6.25;;;0.52;;
64651;SDS011;51062;45.120;37.660;2023-10-09T12:53:43;0.38;;;0.38;;
64651;SDS011;51062;45.120;37.660;2023-10-09T12:56:09;5.38;;;3.05;;
64651;SDS011;51062;45.120;37.660;2023-10-09T12:58:37;0.30;;;0.30;;
64651;SDS011;51062;45.120;37.660;2023-10-09T13:01:04;0.35;;;0.35;;
64651;SDS011;51062;45.120;37.660;2023-10-09T13:03:37;0.30;;;0.30;;
64651;SDS011;51062;45.120;37.660;2023-10-09T13:06:04;0.93;;;0.57;;
64651;SDS011;51062;45.120;37.660;2023-10-09T13:08:36;0.52;;;0.52;;
64651;SDS011;51062;45.120;37.660;2023-10-09T13:11:09;0.38;;;0.38;;
64651;SDS011;51062;45.120;37.660;2023-10-09T13:13:36;0.40;;;0.40;;
64651;SDS011;51062;45.120;37.660;2023-10-09T13:16:07;0.40;;;0.40;;
64651;SDS011;51062;45.120;37.660;2023-10-09T13:18:40;0.40;;;0.40;;
64651;SDS011;51062;45.120;37.660;2023-10-09T13:21:16;0.70;;;0.63;;
64651;SDS011;51062;45.120;37.660;2023-10-09T13:23:52;0.90;;;0.60;;
64651;SDS011;51062;45.120;37.660;2023-10-09T13:26:20;0.40;;;0.40;;
64651;SDS011;51062;45.120;37.660;2023-10-09T13:28:50;3.00;;;0.73;;
64651;SDS011;51062;45.120;37.660;2023-10-09T13:31:18;1.40;;;0.60;;
64651;SDS011;51062;45.120;37.660;2023-10-09T13:33:46;0.75;;;0.75;;
64651;SDS011;51062;45.120;37.660;2023-10-09T13:36:14;0.50;;;0.50;;
64651;SDS011;51062;45.120;37.660;2023-10-09T13:39:07;0.22;;;0.22;;
64651;SDS011;51062;45.120;37.660;2023-10-09T13:41:55;0.40;;;0.40;;
64651;SDS011;51062;45.120;37.660;2023-10-09T13:44:28;2.38;;;0.70;;
64651;SDS011;51062;45.120;37.660;2023-10-09T13:46:56;0.60;;;0.55;;
64651;SDS011;51062;45.120;37.660;2023-10-09T13:49:23;10.68;;;0.75;;
64651;SDS011;51062;45.120;37.660;2023-10-09T13:51:50;0.50;;;0.50;;
64651;SDS011;51062;45.120;37.660;2023-10-09T13:54:16;0.65;;;0.60;;
64651;SDS011;51062;45.120;37.660;2023-10-09T13:56:47;0.45;;;0.45;;
64651;SDS011;51062;45.120;37.660;2023-10-09T13:59:19;0.35;;;0.35;;
64651;SDS011;51062;45.120;37.660;2023-10-09T14:01:53;0.80;;;0.65;;
64651;SDS011;51062;45.120;37.660;2023-10-09T14:04:20;0.40;;;0.40;;
64651;SDS011;51062;45.120;37.660;2023-10-09T14:06:49;0.40;;;0.40;;
64651;SDS011;51062;45.120;37.660;2023-10-09T14:09:22;0.35;;;0.35;;
64651;SDS011;51062;45.120;37.660;2023-10-09T14:12:03;1.10;;;0.63;;
64651;SDS011;51062;45.120;37.660;2023-10-09T14:14:37;0.85;;;0.65;;
64651;SDS011;51062;45.120;37.660;2023-10-09T14:17:07;0.30;;;0.30;;
64651;SDS011;51062;45.120;37.660;2023-10-09T14:19:42;1.90;;;1.08;;
64651;SDS011;51062;45.120;37.660;2023-10-09T14:22:16;0.88;;;0.88;;
64651;SDS011;51062;45.120;37.660;2023-10-09T14:24:45;0.98;;;0.85;;
64651;SDS011;51062;45.120;37.660;2023-10-09T14:27:12;1.13;;;0.88;;
64651;SDS011;51062;45.120;37.660;2023-10-09T14:29:46;0.73;;;0.63;;
64651;SDS011;51062;45.120;37.660;2023-10-09T14:32:13;0.68;;;0.68;;
64651;SDS011;51062;45.120;37.660;2023-10-09T14:34:40;0.82;;;0.82;;
64651;SDS011;51062;45.120;37.660;2023-10-09T14:37:16;0.95;;;0.95;;
64651;SDS011;51062;45.120;37.660;2023-10-09T14:39:44;0.50;;;0.50;;
64651;SDS011;51062;45.120;37.660;2023-10-09T14:42:14;0.40;;;0.40;;
64651;SDS011;51062;45.120;37.660;2023-10-09T14:44:41;0.75;;;0.75;;
64651;SDS011;51062;45.120;37.660;2023-10-09T14:47:07;1.05;;;0.70;;
64651;SDS011;51062;45.120;37.660;2023-10-09T14:49:34;0.50;;;0.50;;
64651;SDS011;51062;45.120;37.660;2023-10-09T14:52:05;0.60;;;0.60;;
64651;SDS011;51062;45.120;37.660;2023-10-09T14:54:33;0.30;;;0.30;;
64651;SDS011;51062;45.120;37.660;2023-10-09T14:57:00;0.40;;;0.40;;
64651;SDS011;51062;45.120;37.660;2023-10-09T14:59:26;0.40;;;0.40;;
64651;SDS011;51062;45.120;37.660;2023-10-09T15:01:53;0.50;;;0.50;;
64651;SDS011;51062;45.120;37.660;2023-10-09T15:04:19;1.27;;;1.05;;
64651;SDS011;51062;45.120;37.660;2023-10-09T15:06:46;1.33;;;1.08;;
64651;SDS011;51062;45.120;37.660;2023-10-09T15:09:15;0.68;;;0.68;;
64651;SDS011;51062;45.120;37.660;2023-10-09T15:11:48;0.25;;;0.25;;
64651;SDS011;51062;45.120;37.660;2023-10-09T15:14:15;0.30;;;0.30;;
64651;SDS011;51062;45.120;37.660;2023-10-09T15:16:44;0.40;;;0.40;;
64651;SDS011;51062;45.120;37.660;2023-10-09T15:19:11;0.40;;;0.40;;
64651;SDS011;51062;45.120;37.660;2023-10-09T15:21:38;4.25;;;1.02;;
64651;SDS011;51062;45.120;37.660;2023-10-09T15:24:14;0.63;;;0.63;;
64651;SDS011;51062;45.120;37.660;2023-10-09T15:26:41;1.08;;;0.82;;
64651;SDS011;51062;45.120;37.660;2023-10-09T15:29:08;0.93;;;0.93;;
64651;SDS011;51062;45.120;37.660;2023-10-09T15:31:35;0.85;;;0.82;;
64651;SDS011;51062;45.120;37.660;2023-10-09T15:34:02;3.60;;;2.22;;
64651;SDS011;51062;45.120;37.660;2023-10-09T15:36:28;1.20;;;1.10;;
64651;SDS011;51062;45.120;37.660;2023-10-09T15:38:56;3.42;;;3.13;;
64651;SDS011;51062;45.120;37.660;2023-10-09T15:41:28;2.28;;;2.00;;
64651;SDS011;51062;45.120;37.660;2023-10-09T15:43:57;2.05;;;1.60;;
64651;SDS011;51062;45.120;37.660;2023-10-09T15:46:24;2.38;;;1.60;;
64651;SDS011;51062;45.120;37.660;2023-10-09T15:49:00;3.25;;;1.48;;
64651;SDS011;51062;45.120;37.660;2023-10-09T15:51:27;0.80;;;0.80;;
64651;SDS011;51062;45.120;37.660;2023-10-09T15:53:55;0.70;;;0.70;;